Nyala, Nevada Weather observations

Data are for observation ending at time listed.
 Day   Time    Ave.   Ave.  Ave.  Vector   Max.   Stn.    Total    Solar   Ave.  
  of    of     Air    Rel.  Wind   Wind    Wind   Baro.  Precip.   Rad.    Soil  
Year   Day     Temp.  Hum.  Speed  Dir.    Gust   Pres.                    Temp. 
2014   (PST)    F      %     mph   deg.    mph     mb.     in.     W/m2     F   
------------------------------------------------------------------------------
 109    0:00   55.5    42    0.9    81      3.5    850     0.00       0    67.2
 109    1:00   54.6    44    0.8    59      2.8    850     0.00       0    66.3
 109    2:00   54.4    44    1.7    68      3.6    849     0.00       0    65.5
 109    3:00   51.5    48    2.5   141      6.1    850     0.00       0    64.8
 109    4:00   49.7    52    2.5   165      4.8    850     0.00       0    63.9
 109    5:00   45.8    56    1.2     8      4.0    850     0.00       0    63.0
 109    6:00   47.2    56    1.2    35      4.0    850     0.00      12    62.1
 109    7:00   53.7    45    1.7    43      6.6    851     0.00      99    61.4
 109    8:00   59.0    36    2.0    33      4.6    851     0.00     192    61.2
 109    9:00   63.3    31    3.1    27      7.9    852     0.00     256    61.9
 109   10:00   68.3    26    2.9    90      7.7    852     0.00     333    63.2
 109   11:00   72.0    22    2.5    30      6.4    851     0.00     370    64.7
 109   12:00   74.3    21    5.0   247     13.4    851     0.00     362    66.9
 109   13:00   75.9    19    6.0   225     20.7    850     0.00     354    69.8
 109   14:00   77.2    17    8.9   226     21.7    850     0.00     384    72.6
 109   15:00   76.0    20   13.9   211     26.0    850     0.00     301    75.2
 109   16:00   74.4    21    8.3   316     23.1    850     0.00     166    76.7
 109   17:00   71.7    24    6.8    21     17.8    850     0.00      87    76.7
 109   18:00   70.7    24    2.8     1      9.1    850     0.00      32    75.7
 109   19:00   65.3    28    2.4    97      6.9    850     0.00       4    74.5
 109   20:00   62.3    33    4.9   193     13.3    851     0.00       0    73.0
 109   21:00   62.0    31    5.1   138      9.2    851     0.00       0    71.4
 109   22:00   60.7    32    5.5   170      8.5    851     0.00       0    70.1
 109   23:00   55.7    37    3.2    11      6.9    852     0.00       0    69.0

Return to Nyala, Nevada graphs page.


Western Regional Climate Center,wrcc@dri.edu